createdAt,value
2023-04-10T00:01:05.404Z,19.40
2023-04-10T00:03:33.924Z,19.30
2023-04-10T00:06:03.287Z,18.42
2023-04-10T00:08:31.511Z,14.80
2023-04-10T00:11:04.960Z,17.05
2023-04-10T00:13:34.689Z,14.90
2023-04-10T00:16:03.451Z,18.70
2023-04-10T00:18:31.481Z,22.13
2023-04-10T00:21:00.805Z,19.25
2023-04-10T00:23:32.054Z,18.83
2023-04-10T00:26:04.887Z,16.83
2023-04-10T00:28:32.798Z,16.08
2023-04-10T00:31:00.785Z,17.42
2023-04-10T00:33:30.865Z,16.70
2023-04-10T00:36:01.307Z,15.85
2023-04-10T00:38:33.071Z,18.52
2023-04-10T00:41:01.103Z,21.02
2023-04-10T00:43:29.402Z,20.80
2023-04-10T00:45:57.695Z,19.33
2023-04-10T00:48:27.254Z,18.38
2023-04-10T00:50:55.732Z,18.13
2023-04-10T00:53:23.747Z,18.73
2023-04-10T00:55:54.327Z,18.50
2023-04-10T00:58:22.953Z,17.92
2023-04-10T01:00:52.236Z,18.33
2023-04-10T01:03:22.461Z,19.25
2023-04-10T01:06:02.037Z,18.27
2023-04-10T01:08:40.503Z,18.45
2023-04-10T01:11:18.530Z,18.35
2023-04-10T01:13:57.211Z,19.40
2023-04-10T01:16:29.177Z,19.27
2023-04-10T01:19:06.318Z,21.75
2023-04-10T01:21:37.091Z,16.83
2023-04-10T01:24:20.195Z,17.73
2023-04-10T01:27:13.491Z,16.05
2023-04-10T01:29:47.733Z,16.65
2023-04-10T01:32:24.315Z,16.38
2023-04-10T01:34:55.593Z,16.33
2023-04-10T01:37:27.688Z,15.90
2023-04-10T01:40:00.823Z,15.57
2023-04-10T01:45:04.298Z,15.95
2023-04-10T01:47:33.099Z,17.92
2023-04-10T01:50:05.228Z,17.08
2023-04-10T01:52:36.584Z,15.30
2023-04-10T01:55:07.162Z,20.38
2023-04-10T01:57:35.982Z,17.48
2023-04-10T02:00:09.198Z,18.85
2023-04-10T02:02:37.654Z,17.88
2023-04-10T02:05:06.735Z,16.35
2023-04-10T02:07:42.707Z,16.50
2023-04-10T02:10:15.542Z,16.02
2023-04-10T02:12:50.600Z,19.02
2023-04-10T02:15:22.610Z,20.15
2023-04-10T02:17:52.609Z,23.10
2023-04-10T02:20:21.410Z,18.88
2023-04-10T02:22:50.889Z,21.33
2023-04-10T02:25:19.053Z,19.10
2023-04-10T02:27:47.051Z,17.55
2023-04-10T02:30:16.589Z,18.02
2023-04-10T02:32:46.655Z,18.20
2023-04-10T02:35:14.841Z,17.67
2023-04-10T02:37:43.291Z,22.27
2023-04-10T02:40:13.531Z,22.27
2023-04-10T02:42:41.467Z,21.65
2023-04-10T02:45:10.391Z,18.13
2023-04-10T02:47:38.477Z,16.60
2023-04-10T02:50:09.188Z,20.02
2023-04-10T02:52:37.799Z,23.80
2023-04-10T02:55:07.956Z,21.95
2023-04-10T02:57:36.693Z,20.58
2023-04-10T03:00:05.538Z,21.17
2023-04-10T03:02:33.787Z,21.38
2023-04-10T03:05:02.531Z,20.40
2023-04-10T03:07:32.599Z,20.85
2023-04-10T03:10:00.564Z,20.77
2023-04-10T03:12:28.542Z,19.25
2023-04-10T03:14:58.604Z,20.92
2023-04-10T03:17:26.846Z,19.92
2023-04-10T03:19:54.894Z,21.55
2023-04-10T03:22:23.101Z,21.08
2023-04-10T03:24:54.455Z,20.25
2023-04-10T03:27:23.562Z,18.98
2023-04-10T03:29:51.650Z,22.00
2023-04-10T03:32:20.119Z,22.92
2023-04-10T03:34:49.008Z,18.88
2023-04-10T03:37:17.099Z,23.40
2023-04-10T03:39:46.886Z,21.13
2023-04-10T03:42:18.338Z,21.20
2023-04-10T03:44:48.142Z,19.90
2023-04-10T03:47:16.285Z,24.75
2023-04-10T03:49:44.122Z,26.42
2023-04-10T03:52:12.277Z,18.60
2023-04-10T03:54:45.523Z,20.23
2023-04-10T03:57:15.887Z,21.67
2023-04-10T03:59:45.590Z,19.35
2023-04-10T04:02:13.666Z,21.60
2023-04-10T04:04:42.067Z,19.27
2023-04-10T04:07:11.171Z,20.77
2023-04-10T04:09:41.078Z,21.25
2023-04-10T04:12:10.570Z,21.30
2023-04-10T04:14:38.815Z,22.30
2023-04-10T04:17:08.452Z,21.95
2023-04-10T04:19:37.882Z,21.48
2023-04-10T04:22:05.940Z,24.95
2023-04-10T04:24:35.193Z,23.52
2023-04-10T04:27:03.640Z,21.25
2023-04-10T04:29:31.901Z,21.67
2023-04-10T04:32:00.645Z,19.45
2023-04-10T04:34:32.269Z,25.05
2023-04-10T04:37:00.262Z,21.27
2023-04-10T04:39:29.306Z,19.67
2023-04-10T04:41:57.830Z,19.85
2023-04-10T04:44:25.795Z,20.33
2023-04-10T04:46:53.752Z,23.33
2023-04-10T04:49:22.094Z,22.15
2023-04-10T04:51:51.643Z,21.33
2023-04-10T04:54:19.811Z,21.75
2023-04-10T04:56:49.867Z,23.17
2023-04-10T04:59:18.002Z,23.58
2023-04-10T05:01:48.377Z,23.42
2023-04-10T05:04:16.838Z,22.00
2023-04-10T05:06:45.606Z,22.05
2023-04-10T05:09:15.455Z,22.00
2023-04-10T05:11:44.320Z,20.13
2023-04-10T05:14:13.807Z,20.77
2023-04-10T05:16:42.824Z,19.45
2023-04-10T05:19:10.928Z,21.92
2023-04-10T05:21:39.115Z,22.00
2023-04-10T05:24:07.624Z,18.55
2023-04-10T05:26:36.832Z,23.50
2023-04-10T05:29:06.409Z,21.65
2023-04-10T05:31:34.447Z,21.27
2023-04-10T05:34:02.549Z,20.70
2023-04-10T05:36:31.694Z,20.45
2023-04-10T05:38:59.699Z,20.30
2023-04-10T05:41:27.626Z,19.30
2023-04-10T05:43:57.260Z,19.55
2023-04-10T05:46:29.678Z,19.05
2023-04-10T05:49:00.259Z,19.48
2023-04-10T05:51:29.252Z,17.75
2023-04-10T05:53:57.294Z,19.35
2023-04-10T05:56:26.920Z,19.90
2023-04-10T05:58:56.562Z,21.35
2023-04-10T06:01:24.844Z,16.00
2023-04-10T06:03:53.266Z,17.30
2023-04-10T06:06:24.551Z,19.27
2023-04-10T06:08:53.523Z,18.60
2023-04-10T06:11:21.817Z,19.17
2023-04-10T06:13:50.090Z,17.15
2023-04-10T06:16:21.848Z,17.80
2023-04-10T06:18:53.156Z,19.80
2023-04-10T06:21:21.908Z,20.05
2023-04-10T06:23:49.858Z,18.45
2023-04-10T06:26:18.678Z,18.20
2023-04-10T06:28:47.199Z,18.10
2023-04-10T06:31:16.044Z,17.48
2023-04-10T06:33:45.401Z,18.25
2023-04-10T06:36:13.782Z,18.42
2023-04-10T06:38:41.822Z,18.60
2023-04-10T06:41:09.847Z,17.10
2023-04-10T06:43:39.991Z,15.10
2023-04-10T06:46:10.997Z,16.70
2023-04-10T06:48:40.467Z,15.80
2023-04-10T06:51:10.662Z,17.15
2023-04-10T06:53:38.915Z,15.93
2023-04-10T06:56:08.209Z,17.50
2023-04-10T06:58:36.306Z,15.13
2023-04-10T07:01:05.098Z,18.13
2023-04-10T07:03:36.196Z,15.63
2023-04-10T07:06:08.416Z,15.80
2023-04-10T07:08:40.236Z,14.93
2023-04-10T07:11:08.824Z,15.50
2023-04-10T07:13:38.958Z,15.82
2023-04-10T07:16:08.721Z,17.20
2023-04-10T07:18:38.494Z,14.40
2023-04-10T07:21:12.893Z,14.68
2023-04-10T07:23:42.375Z,14.48
2023-04-10T07:26:12.458Z,16.63
2023-04-10T07:28:43.323Z,14.23
2023-04-10T07:31:13.435Z,14.70
2023-04-10T07:33:46.043Z,18.20
2023-04-10T07:36:14.113Z,14.65
2023-04-10T07:38:48.338Z,13.65
2023-04-10T07:41:16.583Z,16.88
2023-04-10T07:43:44.759Z,15.18
2023-04-10T07:46:14.103Z,14.48
2023-04-10T07:48:42.652Z,16.13
2023-04-10T07:51:12.557Z,14.38
2023-04-10T07:53:41.306Z,13.02
2023-04-10T07:56:18.180Z,13.45
2023-04-10T07:58:52.356Z,14.43
2023-04-10T08:01:20.461Z,14.80
2023-04-10T08:03:48.776Z,13.70
2023-04-10T08:06:17.164Z,13.95
2023-04-10T08:08:45.388Z,12.50
2023-04-10T08:11:29.187Z,12.50
2023-04-10T08:13:59.312Z,14.70
2023-04-10T08:16:28.680Z,12.93
2023-04-10T08:18:58.299Z,12.38
2023-04-10T08:21:31.454Z,12.55
2023-04-10T08:26:32.131Z,12.00
2023-04-10T08:29:04.448Z,10.25
2023-04-10T08:31:32.785Z,11.95
2023-04-10T08:34:06.021Z,10.75
2023-04-10T08:36:33.915Z,12.38
2023-04-10T08:39:01.810Z,11.05
2023-04-10T08:41:33.460Z,9.73
2023-04-10T08:44:01.399Z,10.73
2023-04-10T08:46:33.239Z,9.30
2023-04-10T08:49:04.395Z,7.82
2023-04-10T08:51:37.343Z,9.73
2023-04-10T08:54:08.034Z,10.57
2023-04-10T08:56:41.484Z,7.70
2023-04-10T08:59:09.752Z,8.18
2023-04-10T09:01:38.589Z,8.50
2023-04-10T09:04:07.700Z,8.35
2023-04-10T09:06:35.978Z,8.48
2023-04-10T09:09:04.050Z,8.10
2023-04-10T09:12:00.907Z,7.45
2023-04-10T09:14:30.702Z,7.18
2023-04-10T09:17:15.388Z,7.43
2023-04-10T09:19:44.551Z,9.82
2023-04-10T09:22:12.813Z,7.97
2023-04-10T09:24:42.673Z,7.40
2023-04-10T09:27:28.090Z,8.43
2023-04-10T09:29:56.444Z,9.45
2023-04-10T09:32:46.531Z,8.15
2023-04-10T09:35:18.889Z,8.73
2023-04-10T09:37:48.560Z,8.05
2023-04-10T09:40:26.172Z,10.95
2023-04-10T09:42:57.998Z,8.23
2023-04-10T09:45:26.277Z,7.32
2023-04-10T09:48:04.451Z,8.18
2023-04-10T09:50:41.647Z,7.20
2023-04-10T09:53:10.418Z,6.30
2023-04-10T09:55:40.206Z,7.55
2023-04-10T09:58:10.546Z,7.03
2023-04-10T10:00:42.983Z,6.65
2023-04-10T10:03:12.531Z,6.97
2023-04-10T10:05:42.475Z,6.40
2023-04-10T10:08:13.688Z,5.40
2023-04-10T10:10:46.920Z,5.82
2023-04-10T10:13:22.605Z,5.53
2023-04-10T10:15:58.260Z,6.63
2023-04-10T10:18:33.706Z,5.25
2023-04-10T10:21:03.701Z,5.47
2023-04-10T10:23:34.653Z,6.07
2023-04-10T10:26:06.365Z,5.93
2023-04-10T10:28:37.170Z,6.22
2023-04-10T10:31:08.478Z,5.43
2023-04-10T10:33:37.552Z,6.60
2023-04-10T10:36:08.785Z,5.88
2023-04-10T10:38:40.897Z,6.25
2023-04-10T10:41:15.844Z,6.85
2023-04-10T10:43:55.204Z,5.88
2023-04-10T10:46:33.715Z,5.40
2023-04-10T10:49:02.179Z,6.25
2023-04-10T10:51:45.339Z,5.68
2023-04-10T10:54:32.831Z,6.95
2023-04-10T10:57:01.257Z,5.32
2023-04-10T10:59:58.007Z,6.15
2023-04-10T11:02:26.175Z,5.55
2023-04-10T11:04:54.456Z,6.25
2023-04-10T11:07:22.710Z,6.03
2023-04-10T11:09:57.130Z,6.28
2023-04-10T11:12:26.261Z,6.47
2023-04-10T11:15:04.976Z,6.72
2023-04-10T11:17:51.803Z,5.85
2023-04-10T11:20:25.927Z,6.22
2023-04-10T11:23:11.808Z,4.80
2023-04-10T11:25:51.217Z,5.50
2023-04-10T11:28:39.155Z,5.78
2023-04-10T11:31:20.917Z,5.95
2023-04-10T11:33:49.792Z,6.90
2023-04-10T11:36:19.273Z,7.90
2023-04-10T11:38:58.355Z,5.65
2023-04-10T11:41:32.061Z,5.55
2023-04-10T11:44:01.112Z,7.00
2023-04-10T11:46:31.538Z,5.25
2023-04-10T11:49:01.223Z,5.88
2023-04-10T11:51:29.769Z,6.15
2023-04-10T11:54:10.993Z,6.07
2023-04-10T11:56:40.396Z,4.97
2023-04-10T11:59:10.972Z,6.35
2023-04-10T12:01:42.962Z,6.00
2023-04-10T12:04:16.283Z,4.88
2023-04-10T12:09:15.724Z,4.78
2023-04-10T12:11:52.159Z,4.53
2023-04-10T12:14:21.581Z,5.07
2023-04-10T12:16:52.624Z,6.20
2023-04-10T12:19:23.818Z,5.35
2023-04-10T12:21:51.822Z,4.50
2023-04-10T12:24:45.040Z,4.68
2023-04-10T12:29:48.035Z,4.13
2023-04-10T12:32:20.369Z,4.93
2023-04-10T12:34:51.819Z,3.90
2023-04-10T12:37:22.897Z,4.40
2023-04-10T12:39:51.800Z,3.58
2023-04-10T12:42:22.621Z,4.57
2023-04-10T12:44:57.823Z,4.28
2023-04-10T12:47:29.463Z,4.10
2023-04-10T12:50:08.808Z,4.38
2023-04-10T12:52:37.157Z,4.22
2023-04-10T12:55:16.002Z,4.47
2023-04-10T12:57:45.863Z,3.60
2023-04-10T13:00:16.006Z,3.78
2023-04-10T13:02:46.203Z,3.78
2023-04-10T13:05:14.463Z,3.75
2023-04-10T13:07:44.941Z,3.42
2023-04-10T13:10:13.818Z,3.95
2023-04-10T13:12:44.239Z,3.95
2023-04-10T13:15:12.206Z,2.90
2023-04-10T13:17:42.646Z,4.25
2023-04-10T13:20:13.439Z,3.28
2023-04-10T13:22:48.578Z,3.13
2023-04-10T13:25:18.005Z,3.78
2023-04-10T13:27:47.441Z,4.47
2023-04-10T13:30:16.792Z,3.20
2023-04-10T13:32:44.746Z,3.78
2023-04-10T13:35:14.217Z,3.20
2023-04-10T13:37:42.516Z,3.15
2023-04-10T13:40:11.687Z,3.10
2023-04-10T13:42:41.930Z,3.13
2023-04-10T13:45:11.158Z,4.13
2023-04-10T13:47:39.387Z,4.10
2023-04-10T13:50:08.411Z,3.55
2023-04-10T13:52:37.928Z,3.58
2023-04-10T13:55:08.391Z,4.38
2023-04-10T13:57:36.840Z,3.85
2023-04-10T14:00:07.479Z,3.00
2023-04-10T14:02:38.413Z,3.70
2023-04-10T14:05:07.146Z,5.03
2023-04-10T14:07:35.396Z,3.28
2023-04-10T14:10:05.620Z,3.20
2023-04-10T14:12:35.990Z,3.95
2023-04-10T14:15:06.603Z,3.57
2023-04-10T14:17:37.451Z,4.07
2023-04-10T14:20:06.321Z,4.40
2023-04-10T14:22:34.551Z,4.65
2023-04-10T14:25:15.623Z,2.92
2023-04-10T14:27:44.109Z,4.25
2023-04-10T14:30:14.164Z,3.92
2023-04-10T14:32:43.866Z,2.75
2023-04-10T14:35:12.788Z,3.80
2023-04-10T14:37:40.671Z,3.53
2023-04-10T14:40:11.591Z,3.78
2023-04-10T14:42:40.169Z,4.00
2023-04-10T14:45:09.219Z,3.80
2023-04-10T14:47:37.654Z,2.83
2023-04-10T14:50:07.176Z,3.53
2023-04-10T14:52:35.175Z,3.67
2023-04-10T14:55:03.756Z,3.80
2023-04-10T14:57:33.513Z,3.40
2023-04-10T15:00:01.969Z,3.83
2023-04-10T15:02:31.168Z,4.20
2023-04-10T15:04:59.438Z,3.97
2023-04-10T15:07:28.313Z,3.20
2023-04-10T15:09:57.890Z,3.53
2023-04-10T15:12:27.258Z,3.78
2023-04-10T15:14:57.754Z,4.20
2023-04-10T15:17:25.799Z,3.97
2023-04-10T15:19:53.991Z,3.88
2023-04-10T15:22:22.150Z,3.35
2023-04-10T15:24:51.116Z,4.00
2023-04-10T15:27:21.267Z,3.55
2023-04-10T15:29:49.729Z,3.05
2023-04-10T15:32:23.183Z,3.30
2023-04-10T15:34:51.737Z,3.22
2023-04-10T15:37:20.965Z,3.72
2023-04-10T15:39:48.986Z,3.05
2023-04-10T15:42:17.843Z,2.78
2023-04-10T15:44:49.760Z,3.00
2023-04-10T15:47:21.108Z,3.15
2023-04-10T15:49:50.035Z,3.50
2023-04-10T15:52:17.953Z,2.63
2023-04-10T15:54:51.344Z,3.33
2023-04-10T15:57:19.302Z,3.42
2023-04-10T15:59:47.365Z,3.13
2023-04-10T16:02:15.730Z,3.78
2023-04-10T16:04:45.701Z,3.90
2023-04-10T16:07:13.947Z,2.88
2023-04-10T16:09:42.044Z,3.50
2023-04-10T16:12:10.479Z,3.15
2023-04-10T16:14:39.148Z,3.13
2023-04-10T16:17:09.578Z,3.67
2023-04-10T16:19:37.708Z,3.53
2023-04-10T16:22:07.317Z,3.25
2023-04-10T16:24:35.348Z,3.42
2023-04-10T16:27:03.510Z,3.75
2023-04-10T16:29:32.419Z,3.40
2023-04-10T16:32:00.824Z,3.55
2023-04-10T16:34:32.010Z,2.90
2023-04-10T16:36:59.894Z,3.47
2023-04-10T16:39:29.438Z,3.60
2023-04-10T16:41:59.009Z,3.20
2023-04-10T16:44:27.411Z,4.15
2023-04-10T16:46:55.628Z,3.03
2023-04-10T16:49:24.507Z,3.42
2023-04-10T16:51:54.422Z,3.42
2023-04-10T16:54:23.328Z,4.15
2023-04-10T16:56:55.547Z,4.57
2023-04-10T16:59:23.781Z,4.13
2023-04-10T17:01:52.722Z,3.60
2023-04-10T17:04:22.064Z,3.53
2023-04-10T17:06:50.519Z,3.33
2023-04-10T17:09:18.488Z,4.35
2023-04-10T17:11:47.042Z,3.20
2023-04-10T17:14:16.545Z,3.58
2023-04-10T17:16:45.834Z,3.25
2023-04-10T17:19:17.379Z,3.80
2023-04-10T17:21:45.327Z,3.40
2023-04-10T17:24:13.383Z,3.30
2023-04-10T17:26:41.890Z,3.75
2023-04-10T17:29:10.309Z,3.45
2023-04-10T17:31:40.169Z,4.80
2023-04-10T17:34:10.705Z,3.63
2023-04-10T17:36:38.718Z,5.22
2023-04-10T17:39:07.910Z,2.97
2023-04-10T17:41:35.892Z,3.47
2023-04-10T17:44:05.492Z,3.50
2023-04-10T17:46:33.294Z,3.13
2023-04-10T17:49:02.815Z,3.58
2023-04-10T17:51:33.141Z,3.85
2023-04-10T17:54:01.235Z,3.42
2023-04-10T17:56:29.522Z,3.60
2023-04-10T17:58:59.022Z,4.00
2023-04-10T18:01:30.209Z,3.50
2023-04-10T18:04:00.378Z,4.25
2023-04-10T18:06:32.695Z,4.50
2023-04-10T18:09:02.682Z,4.20
2023-04-10T18:11:30.940Z,3.92
2023-04-10T18:14:01.325Z,5.55
2023-04-10T18:16:31.779Z,3.92
2023-04-10T18:19:00.192Z,4.32
2023-04-10T18:21:31.995Z,3.03
2023-04-10T18:24:00.143Z,5.93
2023-04-10T18:26:31.654Z,3.33
2023-04-10T18:28:59.915Z,4.15
2023-04-10T18:31:28.175Z,3.40
2023-04-10T18:34:07.295Z,3.50
2023-04-10T18:36:37.364Z,4.07
2023-04-10T18:39:05.778Z,3.42
2023-04-10T18:41:35.311Z,7.85
2023-04-10T18:44:06.140Z,4.45
2023-04-10T18:46:34.378Z,4.10
2023-04-10T18:49:03.332Z,4.80
2023-04-10T18:51:34.589Z,4.97
2023-04-10T18:54:05.619Z,3.92
2023-04-10T18:56:38.980Z,4.63
2023-04-10T18:59:09.530Z,3.95
2023-04-10T19:01:40.215Z,4.28
2023-04-10T19:04:11.277Z,5.72
2023-04-10T19:06:45.932Z,4.88
2023-04-10T19:09:15.590Z,4.70
2023-04-10T19:11:43.850Z,5.05
2023-04-10T19:14:14.126Z,6.03
2023-04-10T19:16:42.402Z,4.72
2023-04-10T19:19:12.382Z,4.95
2023-04-10T19:21:40.325Z,4.38
2023-04-10T19:24:10.948Z,4.43
2023-04-10T19:26:42.037Z,6.95
2023-04-10T19:29:12.199Z,4.70
2023-04-10T19:31:47.670Z,4.25
2023-04-10T19:34:18.142Z,5.13
2023-04-10T19:36:50.350Z,4.38
2023-04-10T19:39:18.956Z,5.10
2023-04-10T19:41:50.986Z,4.90
2023-04-10T19:44:18.896Z,4.47
2023-04-10T19:46:49.023Z,6.18
2023-04-10T19:49:17.267Z,4.05
2023-04-10T19:51:47.037Z,4.25
2023-04-10T19:54:18.096Z,4.22
2023-04-10T19:56:47.411Z,5.50
2023-04-10T19:59:17.472Z,5.28
2023-04-10T20:01:45.587Z,3.97
2023-04-10T20:04:15.235Z,4.45
2023-04-10T20:06:44.154Z,3.88
2023-04-10T20:09:15.326Z,3.90
2023-04-10T20:11:43.872Z,3.78
2023-04-10T20:14:11.840Z,4.57
2023-04-10T20:16:41.359Z,5.10
2023-04-10T20:19:09.756Z,3.30
2023-04-10T20:21:41.089Z,3.78
2023-04-10T20:24:13.420Z,3.78
2023-04-10T20:26:42.338Z,3.60
2023-04-10T20:29:10.997Z,5.65
2023-04-10T20:31:40.586Z,4.00
2023-04-10T20:34:09.666Z,4.32
2023-04-10T20:36:40.327Z,3.17
2023-04-10T20:39:08.466Z,3.50
2023-04-10T20:41:36.576Z,3.88
2023-04-10T20:44:08.018Z,3.55
2023-04-10T20:46:36.953Z,3.90
2023-04-10T20:49:07.885Z,3.85
2023-04-10T20:51:39.289Z,4.90
2023-04-10T20:54:08.918Z,3.40
2023-04-10T20:56:43.527Z,3.47
2023-04-10T20:59:12.096Z,3.13
2023-04-10T21:01:44.929Z,3.58
2023-04-10T21:04:14.650Z,4.10
2023-04-10T21:06:42.670Z,4.20
2023-04-10T21:09:11.128Z,3.25
2023-04-10T21:11:39.535Z,3.85
2023-04-10T21:14:10.513Z,3.35
2023-04-10T21:16:41.889Z,2.72
2023-04-10T21:19:10.142Z,4.82
2023-04-10T21:21:39.793Z,3.88
2023-04-10T21:24:08.840Z,3.85
2023-04-10T21:26:36.742Z,2.45
2023-04-10T21:29:07.696Z,3.58
2023-04-10T21:31:36.167Z,6.32
2023-04-10T21:34:06.819Z,3.25
2023-04-10T21:36:34.803Z,3.75
2023-04-10T21:39:09.306Z,3.20
2023-04-10T21:41:40.037Z,4.47
2023-04-10T21:44:10.419Z,3.53
2023-04-10T21:46:38.574Z,3.75
2023-04-10T21:49:09.202Z,3.25
2023-04-10T21:51:37.374Z,4.05
2023-04-10T21:54:06.876Z,2.95
2023-04-10T21:56:36.780Z,4.68
2023-04-10T21:59:04.592Z,4.32
2023-04-10T22:01:32.800Z,3.65
2023-04-10T22:04:01.312Z,4.90
2023-04-10T22:06:29.234Z,4.78
2023-04-10T22:08:57.289Z,3.45
2023-04-10T22:11:26.817Z,4.10
2023-04-10T22:13:56.332Z,4.90
2023-04-10T22:16:29.898Z,5.22
2023-04-10T22:18:57.966Z,4.15
2023-04-10T22:21:28.011Z,3.53
2023-04-10T22:23:56.951Z,3.13
2023-04-10T22:26:26.595Z,4.55
2023-04-10T22:28:55.637Z,3.65
2023-04-10T22:31:26.433Z,4.10
2023-04-10T22:33:58.436Z,3.38
2023-04-10T22:36:34.470Z,3.67
2023-04-10T22:39:03.093Z,4.05
2023-04-10T22:41:33.315Z,5.70
2023-04-10T22:44:01.681Z,5.07
2023-04-10T22:46:29.645Z,4.05
2023-04-10T22:49:00.402Z,3.70
2023-04-10T22:51:28.379Z,3.10
2023-04-10T22:53:56.465Z,3.53
2023-04-10T22:56:28.315Z,3.50
2023-04-10T22:58:57.570Z,4.97
2023-04-10T23:01:25.555Z,3.28
2023-04-10T23:03:54.168Z,4.55
2023-04-10T23:06:22.451Z,3.35
2023-04-10T23:08:50.723Z,3.28
2023-04-10T23:11:19.130Z,3.05
2023-04-10T23:13:47.033Z,2.92
2023-04-10T23:16:16.341Z,3.30
2023-04-10T23:18:44.713Z,5.85
2023-04-10T23:21:14.978Z,3.65
2023-04-10T23:23:44.416Z,4.68
2023-04-10T23:26:12.753Z,3.58
2023-04-10T23:28:41.083Z,4.00
2023-04-10T23:31:11.777Z,5.32
2023-04-10T23:33:43.202Z,3.92
2023-04-10T23:36:11.245Z,6.88
2023-04-10T23:38:40.708Z,4.43
2023-04-10T23:41:09.153Z,3.65
2023-04-10T23:43:39.365Z,4.05
2023-04-10T23:46:08.355Z,4.07
2023-04-10T23:48:36.820Z,4.07
2023-04-10T23:51:07.769Z,3.90
2023-04-10T23:53:41.406Z,3.38
2023-04-10T23:56:10.734Z,4.82
2023-04-10T23:58:38.644Z,5.22
